createdAt,value
2018-05-17T00:00:54.587Z,57.96
2018-05-17T00:03:28.710Z,57.62
2018-05-17T00:05:59.224Z,57.65
2018-05-17T00:08:29.571Z,57.34
2018-05-17T00:11:01.316Z,57.57
2018-05-17T00:13:31.736Z,57.81
2018-05-17T00:16:04.894Z,58.00
2018-05-17T00:18:35.720Z,58.40
2018-05-17T00:21:06.110Z,58.15
2018-05-17T00:23:40.134Z,57.84
2018-05-17T00:26:14.026Z,57.72
2018-05-17T00:28:44.781Z,57.67
2018-05-17T00:31:20.769Z,57.78
2018-05-17T00:33:51.066Z,57.66
2018-05-17T00:36:22.190Z,57.43
2018-05-17T00:38:52.575Z,57.14
2018-05-17T00:41:23.552Z,56.82
2018-05-17T00:43:54.269Z,57.52
2018-05-17T00:46:25.494Z,56.72
2018-05-17T00:48:56.093Z,56.81
2018-05-17T00:51:26.424Z,56.33
2018-05-17T00:53:57.327Z,56.17
2018-05-17T00:56:27.943Z,56.16
2018-05-17T00:58:58.173Z,56.50
2018-05-17T01:01:29.794Z,56.72
2018-05-17T01:04:00.450Z,57.00
2018-05-17T01:06:31.022Z,57.10
2018-05-17T01:09:01.737Z,57.80
2018-05-17T01:11:32.017Z,57.24
2018-05-17T01:14:02.736Z,57.46
2018-05-17T01:16:34.165Z,57.65
2018-05-17T01:19:05.156Z,58.10
2018-05-17T01:21:36.397Z,58.04
2018-05-17T01:24:08.166Z,58.07
2018-05-17T01:26:52.588Z,58.42
2018-05-17T01:29:23.904Z,58.64
2018-05-17T01:31:54.825Z,58.95
2018-05-17T01:34:26.066Z,58.90
2018-05-17T01:37:05.101Z,58.58
2018-05-17T01:39:35.355Z,58.30
2018-05-17T01:42:06.002Z,58.50
2018-05-17T01:44:36.680Z,59.25
2018-05-17T01:47:09.574Z,59.20
2018-05-17T01:49:40.103Z,58.93
2018-05-17T01:52:12.271Z,59.01
2018-05-17T01:54:42.722Z,58.99
2018-05-17T01:57:14.262Z,59.03
2018-05-17T01:59:45.090Z,59.16
2018-05-17T02:02:16.820Z,58.96
2018-05-17T02:04:47.721Z,58.59
2018-05-17T02:07:19.764Z,58.94
2018-05-17T02:09:52.387Z,59.09
2018-05-17T02:12:29.855Z,59.09
2018-05-17T02:15:00.274Z,59.24
2018-05-17T02:17:36.944Z,59.01
2018-05-17T02:20:07.677Z,58.86
2018-05-17T02:22:38.299Z,58.53
2018-05-17T02:25:08.720Z,58.55
2018-05-17T02:27:39.563Z,58.51
2018-05-17T02:30:10.032Z,58.71
2018-05-17T02:32:42.644Z,58.72
2018-05-17T02:35:13.255Z,58.84
2018-05-17T02:37:43.478Z,59.27
2018-05-17T02:40:13.824Z,59.04
2018-05-17T02:42:44.100Z,59.04
2018-05-17T02:45:19.050Z,58.97
2018-05-17T02:47:49.332Z,59.31
2018-05-17T02:50:19.964Z,59.21
2018-05-17T02:52:50.222Z,59.46
2018-05-17T02:55:21.542Z,59.33
2018-05-17T02:57:52.164Z,59.41
2018-05-17T03:00:23.888Z,59.34
2018-05-17T03:02:54.185Z,58.99
2018-05-17T03:05:24.485Z,58.83
2018-05-17T03:07:54.745Z,58.86
2018-05-17T03:10:25.421Z,59.08
2018-05-17T03:13:01.608Z,58.93
2018-05-17T03:15:32.608Z,58.37
2018-05-17T03:18:03.292Z,58.37
2018-05-17T03:20:34.077Z,58.28
2018-05-17T03:23:04.467Z,58.39
2018-05-17T03:25:35.403Z,58.90
2018-05-17T03:28:05.773Z,59.04
2018-05-17T03:30:53.691Z,58.80
2018-05-17T03:33:26.442Z,58.57
2018-05-17T03:35:57.048Z,58.03
2018-05-17T03:38:28.491Z,58.17
2018-05-17T03:40:59.234Z,58.57
2018-05-17T03:43:29.529Z,57.89
2018-05-17T03:46:06.392Z,58.03
2018-05-17T03:48:37.448Z,57.80
2018-05-17T03:51:07.681Z,57.84
2018-05-17T03:53:46.712Z,57.80
2018-05-17T03:56:17.940Z,57.67
2018-05-17T03:58:49.662Z,57.54
2018-05-17T04:02:31.875Z,57.41
2018-05-17T04:06:48.371Z,58.00
2018-05-17T04:09:20.145Z,57.17
2018-05-17T04:11:50.648Z,57.45
2018-05-17T04:14:21.236Z,56.97
2018-05-17T04:16:52.331Z,56.80
2018-05-17T04:19:23.709Z,56.52
2018-05-17T04:21:54.196Z,56.76
2018-05-17T04:24:24.449Z,56.86
2018-05-17T04:26:55.071Z,56.60
2018-05-17T04:29:27.387Z,56.44
2018-05-17T04:31:58.577Z,56.32
2018-05-17T04:34:31.478Z,56.73
2018-05-17T04:37:02.061Z,56.86
2018-05-17T04:39:33.408Z,57.05
2018-05-17T04:42:03.798Z,56.97
2018-05-17T04:44:34.184Z,56.86
2018-05-17T04:47:05.304Z,56.29
2018-05-17T04:49:37.610Z,56.30
2018-05-17T04:52:10.455Z,56.07
2018-05-17T04:54:41.789Z,56.37
2018-05-17T04:57:12.136Z,55.63
2018-05-17T04:59:43.929Z,55.43
2018-05-17T05:02:14.612Z,55.26
2018-05-17T05:04:45.476Z,55.32
2018-05-17T05:07:25.410Z,55.56
2018-05-17T05:09:56.685Z,55.79
2018-05-17T05:12:27.461Z,56.07
2018-05-17T05:14:57.995Z,55.09
2018-05-17T05:17:28.705Z,55.31
2018-05-17T05:19:59.913Z,54.63
2018-05-17T05:22:30.464Z,54.32
2018-05-17T05:25:01.869Z,54.35
2018-05-17T05:27:32.917Z,54.15
2018-05-17T05:30:05.922Z,53.68
2018-05-17T05:32:53.973Z,53.32
2018-05-17T05:35:25.342Z,53.33
2018-05-17T05:37:56.377Z,53.46
2018-05-17T05:43:02.207Z,53.09
2018-05-17T05:45:36.866Z,52.78
2018-05-17T05:48:08.425Z,52.87
2018-05-17T05:50:39.779Z,52.41
2018-05-17T05:53:10.722Z,52.69
2018-05-17T05:55:42.210Z,52.51
2018-05-17T05:58:25.406Z,52.21
2018-05-17T06:00:59.548Z,52.21
2018-05-17T06:03:30.830Z,52.22
2018-05-17T06:06:01.527Z,52.22
2018-05-17T06:08:35.295Z,52.05
2018-05-17T06:11:06.875Z,51.75
2018-05-17T06:13:37.399Z,51.72
2018-05-17T06:16:09.939Z,51.42
2018-05-17T06:18:42.353Z,51.02
2018-05-17T06:21:13.856Z,51.06
2018-05-17T06:23:45.398Z,50.24
2018-05-17T06:26:18.834Z,50.36
2018-05-17T06:28:49.362Z,49.77
2018-05-17T06:31:23.015Z,49.99
2018-05-17T06:33:56.715Z,49.57
2018-05-17T06:36:30.094Z,49.11
2018-05-17T06:39:00.637Z,48.76
2018-05-17T06:41:31.386Z,48.04
2018-05-17T06:44:02.199Z,48.04
2018-05-17T06:46:57.264Z,47.31
2018-05-17T06:49:28.715Z,47.22
2018-05-17T06:52:01.052Z,47.39
2018-05-17T06:54:33.737Z,47.25
2018-05-17T06:57:05.893Z,47.27
2018-05-17T06:59:36.684Z,46.70
2018-05-17T07:02:08.400Z,46.64
2018-05-17T07:04:45.945Z,46.10
2018-05-17T07:07:22.010Z,44.52
2018-05-17T07:09:55.361Z,44.46
2018-05-17T07:12:39.205Z,44.44
2018-05-17T07:15:15.722Z,42.68
2018-05-17T07:17:47.198Z,42.94
2018-05-17T07:20:18.090Z,42.78
2018-05-17T07:22:49.194Z,43.24
2018-05-17T07:25:39.715Z,44.10
2018-05-17T07:28:11.523Z,43.93
2018-05-17T07:33:19.540Z,42.25
2018-05-17T07:35:50.936Z,40.50
2018-05-17T07:38:24.622Z,39.88
2018-05-17T07:40:56.932Z,39.86
2018-05-17T07:43:29.127Z,38.85
2018-05-17T07:46:05.519Z,37.23
2018-05-17T07:48:54.860Z,35.93
2018-05-17T07:51:36.199Z,35.95
2018-05-17T07:54:12.570Z,36.40
2018-05-17T07:56:45.604Z,35.21
2018-05-17T07:59:17.704Z,35.03
2018-05-17T08:01:49.241Z,34.34
2018-05-17T08:04:26.580Z,33.85
2018-05-17T08:07:06.390Z,34.48
2018-05-17T08:09:39.296Z,33.30
2018-05-17T08:12:11.498Z,34.40
2018-05-17T08:14:46.686Z,34.21
2018-05-17T08:17:18.600Z,34.69
2018-05-17T08:19:49.237Z,34.63
2018-05-17T08:22:19.809Z,35.28
2018-05-17T08:27:33.216Z,37.97
2018-05-17T08:30:09.721Z,37.91
2018-05-17T08:32:42.996Z,38.88
2018-05-17T08:35:13.419Z,38.14
2018-05-17T08:37:43.921Z,37.92
2018-05-17T08:40:15.470Z,38.51
2018-05-17T08:42:47.199Z,37.81
2018-05-17T08:45:36.841Z,38.24
2018-05-17T08:51:46.048Z,36.39
2018-05-17T08:54:17.434Z,36.17
2018-05-17T08:56:50.061Z,34.94
2018-05-17T08:59:20.392Z,35.63
2018-05-17T09:04:34.312Z,36.59
2018-05-17T09:07:08.854Z,36.61
2018-05-17T09:09:59.571Z,36.54
2018-05-17T09:12:52.383Z,37.03
2018-05-17T09:15:35.782Z,35.46
2018-05-17T09:18:12.860Z,35.07
2018-05-17T09:20:46.320Z,35.19
2018-05-17T09:23:23.632Z,33.60
2018-05-17T09:25:56.498Z,34.37
2018-05-17T09:28:31.583Z,34.11
2018-05-17T09:31:04.413Z,33.14
2018-05-17T09:33:35.019Z,33.43
2018-05-17T09:36:07.203Z,33.51
2018-05-17T09:38:42.090Z,33.50
2018-05-17T09:41:14.683Z,33.21
2018-05-17T09:43:45.459Z,33.48
2018-05-17T09:46:16.086Z,32.12
2018-05-17T09:49:00.528Z,31.72
2018-05-17T09:51:32.838Z,31.66
2018-05-17T09:54:05.794Z,31.41
2018-05-17T09:56:37.115Z,32.04
2018-05-17T09:59:09.186Z,30.94
2018-05-17T10:01:41.684Z,31.24
2018-05-17T10:04:14.422Z,31.48
2018-05-17T10:06:50.342Z,30.86
2018-05-17T10:09:26.257Z,30.87
2018-05-17T10:12:38.414Z,30.11
2018-05-17T10:15:14.265Z,29.42
2018-05-17T10:17:51.060Z,28.88
2018-05-17T10:20:32.385Z,28.91
2018-05-17T10:23:20.663Z,29.29
2018-05-17T10:25:56.236Z,30.16
2018-05-17T10:28:35.736Z,30.33
2018-05-17T10:31:20.395Z,30.81
2018-05-17T10:33:54.283Z,30.15
2018-05-17T10:36:25.701Z,30.25
2018-05-17T10:39:01.064Z,30.74
2018-05-17T10:41:35.559Z,30.72
2018-05-17T10:44:12.688Z,30.16
2018-05-17T10:46:45.831Z,29.33
2018-05-17T10:49:17.060Z,29.12
2018-05-17T10:51:47.652Z,29.37
2018-05-17T10:54:19.013Z,29.13
2018-05-17T10:56:49.857Z,28.81
2018-05-17T10:59:22.535Z,28.05
2018-05-17T11:01:58.835Z,28.76
2018-05-17T11:04:35.976Z,27.74
2018-05-17T11:07:13.485Z,27.46
2018-05-17T11:09:44.166Z,26.99
2018-05-17T11:12:16.517Z,27.45
2018-05-17T11:14:47.766Z,27.60
2018-05-17T11:17:19.482Z,27.76
2018-05-17T11:19:50.833Z,27.40
2018-05-17T11:22:28.321Z,26.25
2018-05-17T11:25:00.113Z,26.65
2018-05-17T11:27:30.953Z,25.40
2018-05-17T11:30:07.730Z,25.53
2018-05-17T11:32:38.967Z,25.70
2018-05-17T11:35:25.356Z,24.65
2018-05-17T11:38:25.805Z,24.76
2018-05-17T11:41:05.784Z,25.34
2018-05-17T11:43:38.567Z,25.47
2018-05-17T11:46:23.221Z,25.86
2018-05-17T11:49:15.455Z,25.58
2018-05-17T11:55:20.269Z,25.90
2018-05-17T11:58:02.634Z,25.89
2018-05-17T12:00:46.729Z,27.03
2018-05-17T12:03:17.843Z,25.10
2018-05-17T12:05:49.853Z,23.87
2018-05-17T12:08:22.793Z,24.79
2018-05-17T12:10:57.677Z,24.60
2018-05-17T12:13:36.333Z,24.32
2018-05-17T12:16:24.876Z,24.12
2018-05-17T12:18:58.333Z,24.50
2018-05-17T12:26:10.395Z,24.04
2018-05-17T12:28:41.134Z,23.36
2018-05-17T12:31:14.612Z,23.13
2018-05-17T12:33:48.345Z,23.73
2018-05-17T12:36:27.372Z,22.36
2018-05-17T12:39:00.064Z,22.98
2018-05-17T12:41:39.024Z,23.03
2018-05-17T12:44:11.186Z,23.13
2018-05-17T12:46:48.367Z,22.41
2018-05-17T12:49:45.553Z,21.81
2018-05-17T12:52:18.396Z,22.14
2018-05-17T12:54:53.871Z,22.16
2018-05-17T12:57:24.389Z,23.13
2018-05-17T12:59:59.518Z,23.79
2018-05-17T13:02:33.693Z,24.41
2018-05-17T13:05:06.909Z,24.11
2018-05-17T13:07:40.133Z,23.69
2018-05-17T13:10:21.342Z,23.86
2018-05-17T13:13:01.209Z,23.95
2018-05-17T13:15:43.252Z,23.44
2018-05-17T13:18:16.393Z,22.67
2018-05-17T13:20:49.349Z,22.33
2018-05-17T13:23:22.034Z,22.20
2018-05-17T13:25:55.598Z,22.36
2018-05-17T13:28:30.814Z,22.05
2018-05-17T13:31:01.861Z,22.69
2018-05-17T13:33:35.374Z,23.25
2018-05-17T13:36:12.262Z,23.70
2018-05-17T13:38:45.514Z,23.21
2018-05-17T13:41:23.333Z,23.69
2018-05-17T13:43:54.764Z,22.84
2018-05-17T13:46:26.002Z,21.63
2018-05-17T13:48:57.833Z,20.97
2018-05-17T13:51:29.042Z,20.16
2018-05-17T13:53:59.451Z,20.89
2018-05-17T13:56:30.686Z,21.78
2018-05-17T13:59:07.555Z,22.37
2018-05-17T14:01:39.861Z,22.42
2018-05-17T14:05:34.194Z,22.83
2018-05-17T14:08:06.952Z,22.91
2018-05-17T14:10:38.403Z,22.96
2018-05-17T14:13:18.037Z,23.07
2018-05-17T14:15:51.026Z,23.41
2018-05-17T14:18:30.844Z,23.00
2018-05-17T14:21:08.078Z,22.70
2018-05-17T14:23:41.505Z,23.19
2018-05-17T14:26:27.961Z,22.48
2018-05-17T14:29:02.643Z,22.93
2018-05-17T14:31:33.715Z,22.99
2018-05-17T14:34:24.869Z,24.29
2018-05-17T14:36:55.411Z,24.88
2018-05-17T14:39:27.841Z,24.83
2018-05-17T14:42:08.124Z,24.32
2018-05-17T14:44:42.672Z,23.75
2018-05-17T14:47:24.808Z,23.98
2018-05-17T14:50:03.167Z,24.14
2018-05-17T14:52:54.827Z,24.08
2018-05-17T14:55:31.120Z,24.27
2018-05-17T14:58:07.889Z,24.35
2018-05-17T15:00:48.994Z,24.13
2018-05-17T15:03:26.644Z,24.65
2018-05-17T15:06:05.302Z,25.01
2018-05-17T15:08:38.141Z,24.59
2018-05-17T15:11:14.757Z,24.71
2018-05-17T15:13:45.094Z,24.94
2018-05-17T15:16:25.341Z,25.25
2018-05-17T15:18:57.404Z,25.37
2018-05-17T15:21:28.511Z,25.45
2018-05-17T15:24:00.471Z,25.91
2018-05-17T15:26:35.213Z,26.32
2018-05-17T15:29:07.934Z,27.09
2018-05-17T15:31:51.091Z,28.21
2018-05-17T15:34:25.464Z,29.01
2018-05-17T15:37:25.662Z,29.67
2018-05-17T15:40:05.510Z,30.01
2018-05-17T15:42:45.581Z,30.24
2018-05-17T15:45:26.876Z,30.50
2018-05-17T15:48:00.137Z,30.53
2018-05-17T15:50:31.834Z,30.03
2018-05-17T15:53:03.952Z,30.65
2018-05-17T15:55:37.393Z,31.00
2018-05-17T15:58:07.920Z,31.47
2018-05-17T16:00:41.110Z,31.60
2018-05-17T16:03:15.378Z,31.22
2018-05-17T16:05:47.966Z,31.39
2018-05-17T16:08:21.613Z,31.75
2018-05-17T16:11:10.433Z,31.86
2018-05-17T16:13:43.106Z,31.57
2018-05-17T16:16:18.280Z,31.82
2018-05-17T16:18:50.887Z,31.97
2018-05-17T16:21:25.173Z,32.52
2018-05-17T16:23:57.171Z,33.04
2018-05-17T16:26:44.841Z,33.10
2018-05-17T16:29:49.973Z,33.47
2018-05-17T16:32:34.338Z,33.37
2018-05-17T16:35:05.369Z,33.39
2018-05-17T16:37:38.506Z,33.10
2018-05-17T16:40:12.654Z,33.72
2018-05-17T16:42:49.727Z,33.80
2018-05-17T16:45:25.980Z,33.87
2018-05-17T16:48:08.806Z,34.09
2018-05-17T16:50:52.465Z,34.24
2018-05-17T16:53:58.576Z,34.31
2018-05-17T16:56:40.723Z,34.58
2018-05-17T16:59:39.564Z,34.56
2018-05-17T17:02:18.879Z,34.63
2018-05-17T17:04:51.364Z,34.95
2018-05-17T17:07:27.287Z,34.27
2018-05-17T17:10:20.933Z,34.61
2018-05-17T17:12:53.883Z,35.02
2018-05-17T17:18:10.492Z,34.97
2018-05-17T17:20:52.200Z,34.90
2018-05-17T17:23:27.782Z,34.47
2018-05-17T17:26:08.990Z,34.72
2018-05-17T17:28:48.140Z,35.22
2018-05-17T17:31:27.708Z,34.95
2018-05-17T17:34:01.184Z,35.12
2018-05-17T17:36:32.649Z,35.55
2018-05-17T17:39:04.757Z,35.92
2018-05-17T17:41:38.830Z,36.21
2018-05-17T17:44:11.135Z,36.48
2018-05-17T17:46:41.771Z,36.69
2018-05-17T17:49:14.797Z,36.90
2018-05-17T17:51:46.567Z,37.01
2018-05-17T17:54:23.927Z,37.05
2018-05-17T17:56:55.585Z,37.27
2018-05-17T17:59:47.353Z,37.35
2018-05-17T18:02:33.466Z,37.37
2018-05-17T18:05:06.270Z,37.88
2018-05-17T18:08:12.423Z,38.02
2018-05-17T18:10:44.503Z,37.87
2018-05-17T18:13:36.846Z,37.81
2018-05-17T18:16:11.083Z,38.11
2018-05-17T18:18:48.860Z,38.54
2018-05-17T18:21:20.730Z,38.50
2018-05-17T18:23:54.059Z,38.43
2018-05-17T18:26:28.192Z,38.51
2018-05-17T18:28:58.816Z,38.09
2018-05-17T18:31:54.980Z,38.53
2018-05-17T18:34:28.822Z,38.73
2018-05-17T18:36:59.326Z,38.85
2018-05-17T18:39:31.074Z,39.34
2018-05-17T18:42:05.889Z,39.61
2018-05-17T18:44:37.003Z,40.02
2018-05-17T18:47:08.185Z,39.96
2018-05-17T18:49:38.735Z,39.82
2018-05-17T18:52:09.298Z,40.20
2018-05-17T18:54:39.857Z,40.50
2018-05-17T18:57:10.873Z,40.82
2018-05-17T18:59:43.145Z,40.87
2018-05-17T19:02:20.753Z,40.61
2018-05-17T19:04:51.913Z,40.74
2018-05-17T19:07:24.008Z,41.20
2018-05-17T19:09:57.871Z,41.48
2018-05-17T19:12:29.962Z,41.44
2018-05-17T19:15:00.515Z,41.54
2018-05-17T19:17:33.399Z,42.07
2018-05-17T19:20:09.938Z,42.32
2018-05-17T19:22:42.058Z,42.30
2018-05-17T19:25:12.970Z,42.24
2018-05-17T19:27:46.111Z,42.39
2018-05-17T19:30:32.478Z,42.51
2018-05-17T19:33:04.596Z,42.54
2018-05-17T19:35:35.797Z,42.83
2018-05-17T19:38:06.391Z,43.09
2018-05-17T19:40:39.712Z,43.12
2018-05-17T19:43:13.752Z,43.35
2018-05-17T19:45:45.231Z,43.69
2018-05-17T19:48:15.853Z,44.12
2018-05-17T19:50:46.694Z,44.12
2018-05-17T19:53:18.960Z,44.39
2018-05-17T19:55:49.669Z,44.51
2018-05-17T19:58:20.818Z,44.53
2018-05-17T20:00:51.307Z,44.95
2018-05-17T20:03:22.698Z,45.28
2018-05-17T20:06:04.894Z,45.60
2018-05-17T20:08:35.851Z,46.01
2018-05-17T20:11:07.384Z,46.42
2018-05-17T20:13:38.844Z,46.48
2018-05-17T20:16:09.918Z,46.55
2018-05-17T20:18:41.613Z,46.46
2018-05-17T20:21:12.427Z,46.64
2018-05-17T20:23:43.211Z,46.68
2018-05-17T20:26:13.578Z,47.00
2018-05-17T20:28:45.606Z,47.16
2018-05-17T20:31:17.001Z,47.16
2018-05-17T20:33:47.710Z,47.03
2018-05-17T20:36:34.017Z,47.42
2018-05-17T20:39:07.669Z,47.58
2018-05-17T20:41:38.532Z,47.83
2018-05-17T20:44:09.621Z,47.95
2018-05-17T20:46:42.869Z,48.13
2018-05-17T20:49:14.402Z,47.88
2018-05-17T20:51:45.519Z,48.06
2018-05-17T20:54:15.979Z,47.58
2018-05-17T20:56:46.903Z,47.90
2018-05-17T20:59:18.316Z,47.99
2018-05-17T21:01:49.064Z,48.39
2018-05-17T21:04:22.575Z,48.39
2018-05-17T21:06:53.262Z,48.42
2018-05-17T21:09:25.708Z,49.05
2018-05-17T21:12:00.323Z,49.60
2018-05-17T21:14:32.283Z,50.20
2018-05-17T21:17:02.953Z,50.36
2018-05-17T21:19:36.711Z,50.47
2018-05-17T21:22:07.578Z,50.63
2018-05-17T21:24:38.833Z,50.83
2018-05-17T21:27:12.558Z,50.90
2018-05-17T21:29:44.104Z,50.97
2018-05-17T21:32:21.743Z,51.12
2018-05-17T21:34:58.831Z,51.19
2018-05-17T21:37:32.505Z,51.61
2018-05-17T21:40:03.393Z,51.89
2018-05-17T21:42:34.488Z,52.14
2018-05-17T21:45:19.072Z,52.29
2018-05-17T21:47:50.259Z,52.53
2018-05-17T21:50:22.760Z,52.55
2018-05-17T21:52:53.442Z,52.46
2018-05-17T21:55:26.228Z,52.01
2018-05-17T21:57:59.491Z,51.51
2018-05-17T22:00:36.148Z,51.16
2018-05-17T22:03:08.055Z,51.52
2018-05-17T22:05:39.689Z,51.47
2018-05-17T22:08:14.634Z,51.37
2018-05-17T22:10:47.023Z,51.06
2018-05-17T22:13:18.485Z,51.25
2018-05-17T22:15:54.192Z,50.65
2018-05-17T22:18:26.958Z,50.24
2018-05-17T22:20:58.013Z,50.54
2018-05-17T22:23:28.863Z,50.77
2018-05-17T22:25:59.764Z,50.79
2018-05-17T22:28:30.368Z,51.09
2018-05-17T22:31:01.521Z,51.07
2018-05-17T22:33:32.491Z,51.24
2018-05-17T22:36:08.826Z,51.52
2018-05-17T22:38:39.086Z,51.12
2018-05-17T22:41:09.599Z,50.81
2018-05-17T22:43:50.830Z,51.09
2018-05-17T22:46:22.309Z,51.32
2018-05-17T22:48:56.379Z,50.85
2018-05-17T22:51:32.624Z,51.06
2018-05-17T22:54:04.465Z,50.98
2018-05-17T22:56:48.727Z,50.86
2018-05-17T22:59:19.361Z,50.96
2018-05-17T23:02:04.891Z,51.29
2018-05-17T23:04:36.486Z,51.04
2018-05-17T23:07:07.306Z,51.06
2018-05-17T23:09:41.302Z,50.88
2018-05-17T23:12:12.551Z,50.31
2018-05-17T23:14:55.211Z,50.47
2018-05-17T23:17:27.743Z,50.94
2018-05-17T23:19:58.512Z,51.00
2018-05-17T23:22:37.296Z,51.31
2018-05-17T23:25:12.285Z,51.41
2018-05-17T23:27:44.126Z,51.55
2018-05-17T23:30:17.223Z,51.69
2018-05-17T23:32:47.625Z,51.36
2018-05-17T23:35:18.972Z,51.85
2018-05-17T23:37:51.015Z,51.83
2018-05-17T23:40:30.995Z,51.95
2018-05-17T23:43:05.010Z,52.03
2018-05-17T23:45:36.115Z,51.85
2018-05-17T23:48:08.069Z,52.15
2018-05-17T23:50:43.533Z,52.24
2018-05-17T23:53:14.526Z,52.73
2018-05-17T23:55:45.781Z,52.21
2018-05-17T23:58:16.379Z,52.36
